Time;durP1;ratioP1;P1;durP2;ratioP2;P2;SDS_P1;SDS_P2;PMS_P1;PMS_P2;Temp;Humidity;BMP_temperature;BMP_pressure;BME280_temperature;BME280_humidity;BME280_pressure;Samples;Min_cycle;Max_cycle;Signal;HPM_P1;HPM_P2
2023/12/02 00:00:26;;;;;;;5.15;1.45;;;24.50;99.90;;;;;;5075935;28;20239;-74
2023/12/02 00:02:56;;;;;;;3.85;1.20;;;24.70;99.90;;;;;;5070430;28;20207;-75
2023/12/02 00:05:27;;;;;;;5.78;1.33;;;24.70;99.90;;;;;;5070278;28;20630;-75
2023/12/02 00:08:00;;;;;;;3.45;1.23;;;24.70;99.90;;;;;;5069961;28;20210;-75
2023/12/02 00:10:31;;;;;;;4.63;1.42;;;24.60;99.90;;;;;;5070523;28;20772;-75
2023/12/02 00:13:01;;;;;;;2.42;1.25;;;24.70;99.90;;;;;;5070094;28;20282;-75
2023/12/02 00:15:32;;;;;;;4.70;1.50;;;24.90;99.90;;;;;;5070514;28;20260;-75
2023/12/02 00:18:03;;;;;;;3.90;1.20;;;25.00;99.90;;;;;;5070220;28;20279;-75
2023/12/02 00:20:34;;;;;;;5.45;1.30;;;25.00;99.90;;;;;;5070531;28;20208;-75
2023/12/02 00:23:06;;;;;;;3.67;1.20;;;25.00;99.90;;;;;;5070579;28;20208;-75
2023/12/02 00:25:37;;;;;;;5.50;1.83;;;25.20;99.90;;;;;;5070380;28;20242;-75
2023/12/02 00:28:08;;;;;;;4.18;1.27;;;25.30;99.90;;;;;;5070997;28;20207;-75
2023/12/02 00:30:39;;;;;;;4.45;1.60;;;25.50;99.90;;;;;;5069873;28;20203;-77
2023/12/02 00:33:11;;;;;;;2.67;1.10;;;25.30;99.90;;;;;;5070145;28;20670;-75
2023/12/02 00:35:41;;;;;;;5.13;1.30;;;25.40;99.90;;;;;;5075534;28;20234;-75
2023/12/02 00:38:14;;;;;;;2.80;1.40;;;25.60;99.90;;;;;;5074723;28;20206;-75
2023/12/02 00:40:45;;;;;;;5.93;1.33;;;25.70;99.90;;;;;;5074118;28;20209;-76
2023/12/02 00:43:16;;;;;;;3.13;1.20;;;25.90;99.90;;;;;;5076220;28;20203;-75
2023/12/02 00:45:46;;;;;;;5.18;1.67;;;26.10;99.90;;;;;;5093809;28;20709;-75
2023/12/02 00:48:17;;;;;;;2.90;1.30;;;26.30;99.90;;;;;;5094024;28;20669;-75
2023/12/02 00:50:48;;;;;;;5.85;1.45;;;26.30;99.90;;;;;;5084978;28;20208;-75
2023/12/02 00:53:21;;;;;;;4.60;1.40;;;26.30;99.90;;;;;;5073461;28;20200;-75
2023/12/02 00:55:51;;;;;;;2.65;1.10;;;26.40;99.90;;;;;;5073578;28;20204;-75
2023/12/02 00:58:22;;;;;;;2.60;1.00;;;26.30;99.90;;;;;;5073622;28;20287;-75
2023/12/02 01:00:53;;;;;;;4.00;1.27;;;26.30;99.90;;;;;;5080655;28;20204;-75
2023/12/02 01:03:24;;;;;;;3.53;1.10;;;26.30;99.90;;;;;;5093664;28;20202;-75
2023/12/02 01:05:54;;;;;;;4.47;1.58;;;26.30;99.90;;;;;;5093834;28;20206;-75
2023/12/02 01:08:27;;;;;;;4.82;1.20;;;26.30;99.90;;;;;;5091564;28;20233;-75
2023/12/02 01:10:58;;;;;;;4.97;1.40;;;26.30;99.90;;;;;;5073652;28;20196;-75
2023/12/02 01:13:29;;;;;;;5.93;1.63;;;26.30;99.90;;;;;;5073241;28;20493;-75
2023/12/02 01:15:59;;;;;;;4.20;1.20;;;26.40;99.90;;;;;;5073137;28;20279;-75
2023/12/02 01:18:30;;;;;;;2.90;1.30;;;26.60;99.90;;;;;;5073723;28;20196;-76
2023/12/02 01:21:01;;;;;;;8.40;1.85;;;26.80;99.90;;;;;;5073239;28;20565;-76
2023/12/02 01:23:34;;;;;;;4.28;1.63;;;26.80;99.90;;;;;;5073021;28;20580;-75
2023/12/02 01:26:04;;;;;;;7.40;1.70;;;26.60;99.90;;;;;;5073420;28;20266;-76
2023/12/02 01:28:35;;;;;;;5.15;1.52;;;26.60;99.90;;;;;;5073492;28;20569;-76
2023/12/02 01:31:06;;;;;;;7.43;1.50;;;26.60;99.90;;;;;;5058101;28;20275;-75
2023/12/02 01:33:37;;;;;;;6.95;1.90;;;26.50;99.90;;;;;;5073282;28;20203;-75
2023/12/02 01:36:12;;;;;;;7.22;1.67;;;26.70;99.90;;;;;;5091409;28;20654;-76
2023/12/02 01:38:45;;;;;;;4.63;1.50;;;26.70;99.90;;;;;;5093328;28;20715;-76
2023/12/02 01:41:15;;;;;;;7.07;1.85;;;26.90;99.90;;;;;;5093597;28;20202;-75
2023/12/02 01:43:47;;;;;;;6.47;1.50;;;26.80;99.90;;;;;;5092978;28;20282;-76
2023/12/02 01:46:18;;;;;;;7.10;1.70;;;26.70;99.90;;;;;;5091921;28;20223;-76
2023/12/02 01:48:49;;;;;;;5.32;1.80;;;26.70;99.90;;;;;;5085341;28;20204;-76
2023/12/02 01:51:20;;;;;;;4.50;1.45;;;26.80;99.90;;;;;;5073339;28;20203;-76
2023/12/02 01:53:53;;;;;;;6.18;1.77;;;26.80;99.90;;;;;;5072213;28;20204;-77
2023/12/02 01:56:24;;;;;;;3.75;1.10;;;26.80;99.90;;;;;;5072613;28;20196;-75
2023/12/02 01:58:55;;;;;;;5.05;1.45;;;26.80;99.90;;;;;;5072386;28;20204;-75
2023/12/02 02:01:25;;;;;;;6.97;1.75;;;27.00;99.90;;;;;;5072713;28;20196;-75
2023/12/02 02:03:56;;;;;;;4.53;1.52;;;27.30;99.90;;;;;;5073571;28;20287;-75
2023/12/02 02:06:27;;;;;;;7.72;1.85;;;27.30;99.90;;;;;;5072401;28;20200;-75
2023/12/02 02:09:00;;;;;;;5.30;1.85;;;27.30;99.90;;;;;;5072609;28;20204;-76
2023/12/02 02:11:31;;;;;;;6.18;1.55;;;27.30;99.90;;;;;;5072351;28;20195;-76
2023/12/02 02:14:02;;;;;;;6.47;1.33;;;27.40;99.90;;;;;;5072262;28;20286;-75
2023/12/02 02:16:32;;;;;;;8.45;1.52;;;27.80;99.90;;;;;;5072564;28;20211;-75
2023/12/02 02:19:03;;;;;;;2.70;1.38;;;28.00;99.90;;;;;;5072447;28;20199;-77
2023/12/02 02:21:36;;;;;;;4.10;1.50;;;28.10;99.90;;;;;;5073918;28;20253;-77
2023/12/02 02:24:07;;;;;;;6.68;1.23;;;28.30;99.90;;;;;;5074002;28;20207;-77
2023/12/02 02:26:38;;;;;;;6.30;1.60;;;28.30;99.90;;;;;;5086162;28;20229;-76
2023/12/02 02:29:09;;;;;;;4.78;1.48;;;28.40;99.90;;;;;;5092924;28;20203;-77
2023/12/02 02:31:39;;;;;;;4.30;1.40;;;28.10;99.90;;;;;;5082318;28;20200;-75
2023/12/02 02:34:10;;;;;;;7.25;1.48;;;27.90;99.90;;;;;;5072050;28;20218;-75
2023/12/02 02:36:43;;;;;;;8.27;1.35;;;27.80;99.90;;;;;;5071728;28;20578;-76
2023/12/02 02:39:14;;;;;;;9.23;1.52;;;27.60;99.90;;;;;;5071586;28;20192;-75
2023/12/02 02:41:44;;;;;;;4.05;1.50;;;27.30;99.90;;;;;;5071547;28;20196;-75
2023/12/02 02:44:16;;;;;;;6.03;1.52;;;27.20;99.90;;;;;;5072106;28;20290;-75
2023/12/02 02:46:47;;;;;;;4.60;1.58;;;26.90;99.90;;;;;;5071272;28;20258;-75
2023/12/02 02:49:17;;;;;;;4.68;1.50;;;26.90;99.90;;;;;;5071558;28;20202;-75
2023/12/02 02:51:50;;;;;;;6.60;1.67;;;26.80;99.90;;;;;;5071465;28;20265;-75
2023/12/02 02:54:21;;;;;;;6.40;1.60;;;26.70;99.90;;;;;;5071172;28;20314;-75
2023/12/02 02:56:52;;;;;;;6.88;1.70;;;26.50;99.90;;;;;;5071083;28;20652;-75
2023/12/02 02:59:23;;;;;;;6.97;1.73;;;26.30;99.90;;;;;;5072111;28;20287;-75
2023/12/02 03:01:54;;;;;;;4.30;1.30;;;26.00;99.90;;;;;;5071093;28;20200;-75
2023/12/02 03:04:24;;;;;;;6.57;1.50;;;25.60;99.90;;;;;;5071254;28;20204;-75
2023/12/02 03:06:57;;;;;;;5.03;1.38;;;25.60;99.90;;;;;;5070651;28;20246;-76
2023/12/02 03:09:28;;;;;;;4.90;1.60;;;25.50;99.90;;;;;;5071067;28;20200;-76
2023/12/02 03:11:59;;;;;;;8.15;1.70;;;25.60;99.90;;;;;;5070740;28;20546;-76
2023/12/02 03:14:29;;;;;;;3.60;1.40;;;25.40;99.90;;;;;;5070887;28;20227;-76
2023/12/02 03:17:01;;;;;;;3.25;1.27;;;25.50;99.90;;;;;;5071497;28;20206;-75
2023/12/02 03:19:32;;;;;;;5.30;1.40;;;25.60;99.90;;;;;;5070783;28;20200;-75
2023/12/02 03:22:06;;;;;;;6.18;1.52;;;25.50;99.90;;;;;;5070952;28;20261;-76
2023/12/02 03:24:37;;;;;;;4.75;1.20;;;25.50;99.90;;;;;;5071091;28;20208;-76
2023/12/02 03:27:08;;;;;;;5.40;1.30;;;25.50;99.90;;;;;;5071132;28;20196;-76
2023/12/02 03:29:39;;;;;;;7.50;1.58;;;25.50;99.90;;;;;;5071498;28;20196;-75
2023/12/02 03:32:10;;;;;;;5.38;1.42;;;25.40;99.90;;;;;;5072332;28;20196;-75
2023/12/02 03:34:41;;;;;;;5.40;1.35;;;25.40;99.90;;;;;;5071691;28;20256;-76
2023/12/02 03:37:13;;;;;;;4.80;1.30;;;25.40;99.90;;;;;;5070622;28;20202;-75
2023/12/02 03:39:44;;;;;;;5.88;1.55;;;25.50;99.90;;;;;;5070645;28;20282;-75
2023/12/02 03:42:15;;;;;;;3.33;1.20;;;25.40;99.90;;;;;;5070630;28;20203;-75
2023/12/02 03:44:46;;;;;;;4.47;1.20;;;25.50;99.90;;;;;;5070359;28;20204;-75
2023/12/02 03:47:17;;;;;;;3.13;1.17;;;25.40;99.90;;;;;;5070618;28;20199;-75
2023/12/02 03:49:48;;;;;;;5.40;1.48;;;25.30;99.90;;;;;;5070434;28;20282;-75
2023/12/02 03:52:20;;;;;;;4.00;1.20;;;25.30;99.90;;;;;;5089585;28;20207;-75
2023/12/02 03:54:51;;;;;;;3.47;0.90;;;25.20;99.90;;;;;;5090823;28;20298;-75
2023/12/02 03:57:22;;;;;;;5.43;1.40;;;25.30;99.90;;;;;;5070436;28;20577;-76
2023/12/02 03:59:53;;;;;;;3.97;1.20;;;25.30;99.90;;;;;;5070490;28;20204;-76
2023/12/02 04:02:23;;;;;;;2.33;1.27;;;25.40;99.90;;;;;;5070428;28;20204;-76
2023/12/02 04:04:54;;;;;;;3.50;1.20;;;25.50;99.90;;;;;;5070210;28;20204;-76
2023/12/02 04:07:27;;;;;;;4.60;1.00;;;25.50;99.90;;;;;;5070524;28;20204;-76
2023/12/02 04:09:58;;;;;;;6.85;1.48;;;25.60;99.90;;;;;;5069839;28;20192;-76
2023/12/02 04:12:28;;;;;;;3.80;1.40;;;25.60;99.90;;;;;;5070368;28;20195;-76
2023/12/02 04:14:59;;;;;;;2.75;1.20;;;25.70;99.90;;;;;;5070102;28;20223;-76
2023/12/02 04:17:30;;;;;;;2.28;1.02;;;25.70;99.90;;;;;;5070300;28;20222;-75
2023/12/02 04:20:01;;;;;;;3.60;1.08;;;25.70;99.90;;;;;;5070562;28;20208;-76
2023/12/02 04:22:34;;;;;;;3.47;1.30;;;25.70;99.90;;;;;;5070082;28;20210;-75
2023/12/02 04:25:04;;;;;;;4.90;1.30;;;25.60;99.90;;;;;;5079203;28;20595;-75
2023/12/02 04:27:36;;;;;;;3.78;1.17;;;25.50;99.90;;;;;;5090451;28;20191;-75
2023/12/02 04:30:07;;;;;;;2.60;1.10;;;25.30;99.90;;;;;;5090620;28;20245;-75
2023/12/02 04:32:39;;;;;;;6.22;1.27;;;25.20;99.90;;;;;;5072728;28;20203;-75
2023/12/02 04:35:10;;;;;;;4.70;1.52;;;25.00;99.90;;;;;;5070481;28;20222;-76
2023/12/02 04:37:43;;;;;;;4.90;1.30;;;25.10;99.90;;;;;;5070142;28;20317;-75
2023/12/02 04:40:14;;;;;;;3.03;1.00;;;25.40;99.90;;;;;;5070224;28;20253;-75
2023/12/02 04:42:45;;;;;;;2.65;1.30;;;25.60;99.90;;;;;;5084544;28;20196;-75
2023/12/02 04:45:16;;;;;;;2.92;1.00;;;25.80;99.90;;;;;;5090141;28;20705;-75
2023/12/02 04:47:47;;;;;;;5.32;1.48;;;26.10;99.90;;;;;;5090232;28;20201;-75
2023/12/02 04:50:18;;;;;;;4.88;1.27;;;26.20;99.90;;;;;;5090365;28;20288;-76
2023/12/02 04:52:50;;;;;;;2.28;1.10;;;26.30;99.90;;;;;;5092408;28;20200;-76
2023/12/02 04:55:21;;;;;;;3.50;1.27;;;26.20;99.90;;;;;;5079403;28;20230;-76
2023/12/02 04:57:52;;;;;;;5.60;1.23;;;26.00;99.90;;;;;;5070969;28;20196;-76
2023/12/02 05:00:23;;;;;;;4.82;1.35;;;25.80;99.90;;;;;;5089270;28;20211;-76
2023/12/02 05:02:54;;;;;;;4.28;1.25;;;25.70;99.90;;;;;;5087040;28;20200;-76
2023/12/02 05:05:25;;;;;;;5.82;1.55;;;25.50;99.90;;;;;;5069820;28;20200;-76
2023/12/02 05:07:57;;;;;;;5.30;1.20;;;25.30;99.90;;;;;;5069706;28;20541;-76
2023/12/02 05:10:29;;;;;;;3.63;1.15;;;25.30;99.90;;;;;;5070106;28;20287;-76
2023/12/02 05:13:01;;;;;;;3.33;1.27;;;25.00;99.90;;;;;;5069836;28;20196;-76
2023/12/02 05:15:31;;;;;;;3.63;1.10;;;25.10;99.90;;;;;;5070247;28;20586;-76
2023/12/02 05:18:02;;;;;;;3.15;1.15;;;25.20;99.90;;;;;;5069747;28;20207;-76
2023/12/02 05:20:33;;;;;;;3.38;1.40;;;25.20;99.90;;;;;;5070502;28;20788;-76
2023/12/02 05:23:06;;;;;;;2.40;1.08;;;25.30;99.90;;;;;;5073093;28;20688;-76
2023/12/02 05:25:37;;;;;;;3.05;1.00;;;25.30;99.90;;;;;;5073138;28;20720;-77
2023/12/02 05:28:09;;;;;;;3.95;1.30;;;25.30;99.90;;;;;;5073577;28;20196;-76
2023/12/02 05:30:39;;;;;;;3.55;1.30;;;25.20;99.90;;;;;;5073197;28;20204;-76
2023/12/02 05:33:10;;;;;;;4.80;1.38;;;25.10;99.90;;;;;;5073875;28;20571;-76
2023/12/02 05:35:41;;;;;;;3.13;1.30;;;25.10;99.90;;;;;;5073311;28;20222;-76
2023/12/02 05:38:12;;;;;;;4.50;1.10;;;25.10;99.90;;;;;;5072997;28;20196;-76
2023/12/02 05:40:43;;;;;;;5.93;1.35;;;25.10;99.90;;;;;;5072820;28;20275;-76
2023/12/02 05:43:14;;;;;;;4.13;1.30;;;25.10;99.90;;;;;;5072618;28;20291;-76
2023/12/02 05:45:45;;;;;;;7.32;1.55;;;25.00;99.90;;;;;;5072860;28;20702;-76
2023/12/02 05:48:16;;;;;;;3.90;1.08;;;25.10;99.90;;;;;;5072972;28;20539;-76
2023/12/02 05:50:46;;;;;;;5.43;1.42;;;25.10;99.90;;;;;;5088046;28;20203;-76
2023/12/02 05:53:19;;;;;;;7.15;1.55;;;25.00;99.90;;;;;;5092834;28;20203;-75
2023/12/02 05:55:50;;;;;;;6.28;1.48;;;25.00;99.90;;;;;;5092668;28;20219;-75
2023/12/02 05:58:21;;;;;;;4.43;1.27;;;25.10;99.90;;;;;;5092769;28;20291;-75
2023/12/02 06:00:51;;;;;;;5.13;1.40;;;25.10;99.90;;;;;;5092610;28;20195;-75
2023/12/02 06:03:22;;;;;;;5.68;1.60;;;25.20;99.90;;;;;;5074209;28;20675;-75
2023/12/02 06:05:53;;;;;;;5.60;1.50;;;25.20;99.90;;;;;;5073285;28;20214;-75
2023/12/02 06:08:25;;;;;;;11.00;1.77;;;25.10;99.90;;;;;;5072533;28;20240;-75
2023/12/02 06:10:56;;;;;;;3.72;1.20;;;25.10;99.90;;;;;;5072343;28;20200;-75
2023/12/02 06:13:27;;;;;;;3.70;1.10;;;25.00;99.90;;;;;;5071928;28;20207;-74
2023/12/02 06:16:01;;;;;;;6.85;1.60;;;24.90;99.90;;;;;;5072281;28;20234;-76
2023/12/02 06:18:31;;;;;;;5.30;1.33;;;25.30;99.90;;;;;;5072367;28;20199;-76
2023/12/02 06:21:02;;;;;;;2.53;1.20;;;25.90;99.90;;;;;;5073407;28;20202;-76
2023/12/02 06:23:35;;;;;;;4.88;1.10;;;26.00;99.90;;;;;;5058136;28;20706;-76
2023/12/02 06:26:09;;;;;;;3.88;1.10;;;26.60;99.90;;;;;;5072038;28;20218;-76
2023/12/02 06:28:40;;;;;;;2.13;1.10;;;27.20;99.90;;;;;;5072330;28;20571;-76
2023/12/02 06:31:16;;;;;;;2.03;1.00;;;27.40;99.90;;;;;;5071763;28;20685;-76
2023/12/02 06:33:47;;;;;;;4.60;1.23;;;27.00;99.90;;;;;;5071857;28;20191;-76
2023/12/02 06:36:18;;;;;;;3.60;1.23;;;27.10;99.90;;;;;;5071540;28;20679;-76
2023/12/02 06:38:51;;;;;;;5.43;1.30;;;26.60;99.90;;;;;;5071742;28;20202;-76
2023/12/02 06:41:21;;;;;;;5.60;1.33;;;26.40;99.90;;;;;;5071274;28;20195;-76
2023/12/02 06:43:52;;;;;;;5.75;1.48;;;26.30;99.90;;;;;;5071383;28;20200;-76
2023/12/02 06:46:26;;;;;;;7.53;1.50;;;26.90;99.90;;;;;;5071321;28;20315;-76
2023/12/02 06:48:57;;;;;;;4.80;1.20;;;27.80;99.90;;;;;;5071399;28;20195;-76
2023/12/02 06:51:29;;;;;;;7.25;1.30;;;28.10;99.90;;;;;;5071298;28;20658;-76
2023/12/02 06:54:02;;;;;;;2.90;1.20;;;27.70;99.90;;;;;;5071313;28;20202;-76
2023/12/02 06:56:33;;;;;;;5.07;1.42;;;27.10;99.90;;;;;;5071009;28;20227;-76
2023/12/02 06:59:03;;;;;;;4.47;1.50;;;26.60;99.90;;;;;;5071628;28;20206;-75
2023/12/02 07:01:35;;;;;;;6.60;1.40;;;26.30;99.90;;;;;;5071364;28;20654;-77
2023/12/02 07:04:06;;;;;;;6.40;1.60;;;26.00;99.90;;;;;;5071324;28;20200;-76
2023/12/02 07:06:39;;;;;;;5.25;1.25;;;25.80;99.90;;;;;;5071059;28;20200;-75
2023/12/02 07:09:12;;;;;;;9.00;1.50;;;25.60;99.90;;;;;;5071634;28;20200;-76
2023/12/02 07:11:43;;;;;;;8.50;1.42;;;25.50;99.90;;;;;;5071371;28;20247;-76
2023/12/02 07:14:14;;;;;;;6.00;1.60;;;25.40;99.90;;;;;;5066483;28;20363;-76
2023/12/02 07:16:44;;;;;;;6.88;1.52;;;25.30;99.90;;;;;;5070555;28;20255;-76
2023/12/02 07:19:15;;;;;;;6.25;1.50;;;25.20;99.90;;;;;;5071118;28;20196;-76
2023/12/02 07:21:53;;;;;;;6.90;1.83;;;25.20;99.90;;;;;;5070718;28;20261;-76
2023/12/02 07:27:13;;;;;;;7.65;1.50;;;24.90;99.90;;;;;;5070296;28;20207;-76
2023/12/02 07:29:44;;;;;;;7.65;1.60;;;24.80;99.90;;;;;;5070653;28;20229;-76
2023/12/02 07:32:14;;;;;;;5.30;1.60;;;24.80;99.90;;;;;;5071148;28;20192;-75
2023/12/02 07:34:45;;;;;;;5.70;1.55;;;24.70;99.90;;;;;;5070745;28;20206;-75
2023/12/02 07:37:16;;;;;;;7.63;1.55;;;24.70;99.90;;;;;;5070399;28;20227;-75
2023/12/02 07:39:49;;;;;;;6.55;1.58;;;24.60;99.90;;;;;;5070492;28;20200;-75
2023/12/02 07:42:20;;;;;;;7.55;1.52;;;24.60;99.90;;;;;;5070601;28;20200;-75
2023/12/02 07:44:51;;;;;;;4.68;1.20;;;24.50;99.90;;;;;;5070650;28;20227;-75
2023/12/02 07:47:23;;;;;;;6.28;1.35;;;24.50;99.90;;;;;;5070729;28;20196;-75
2023/12/02 07:49:54;;;;;;;5.50;1.75;;;24.40;99.90;;;;;;5071236;28;20642;-75
2023/12/02 07:52:25;;;;;;;6.25;1.55;;;24.30;99.90;;;;;;5072489;28;20291;-75
2023/12/02 07:54:58;;;;;;;5.75;1.50;;;24.30;99.90;;;;;;5070643;28;20196;-75
2023/12/02 07:57:29;;;;;;;5.18;1.40;;;24.30;99.90;;;;;;5070269;28;20223;-75
2023/12/02 07:59:59;;;;;;;7.47;1.50;;;24.30;99.90;;;;;;5056582;28;20287;-75
2023/12/02 08:02:30;;;;;;;5.53;1.63;;;24.10;99.90;;;;;;5050555;28;20283;-75
2023/12/02 08:05:01;;;;;;;6.53;1.77;;;24.10;99.90;;;;;;5052105;28;20218;-75
2023/12/02 08:07:32;;;;;;;7.45;1.67;;;24.20;99.90;;;;;;5070127;28;20261;-75
2023/12/02 08:10:06;;;;;;;5.63;1.58;;;24.10;99.90;;;;;;5070493;28;20745;-75
2023/12/02 08:12:38;;;;;;;7.45;1.40;;;24.20;99.90;;;;;;5070314;28;20264;-75
2023/12/02 08:15:10;;;;;;;5.30;1.40;;;24.20;99.90;;;;;;5070790;28;20184;-76
2023/12/02 08:17:40;;;;;;;4.95;1.23;;;24.20;99.90;;;;;;5070575;28;20227;-75
2023/12/02 08:20:12;;;;;;;6.40;1.50;;;24.10;99.90;;;;;;5070316;28;20287;-75
2023/12/02 08:22:43;;;;;;;4.82;1.52;;;24.10;99.90;;;;;;5076131;28;20237;-75
2023/12/02 08:25:15;;;;;;;7.22;1.95;;;24.00;99.90;;;;;;5090290;28;20626;-76
2023/12/02 08:27:46;;;;;;;6.35;1.92;;;23.90;99.90;;;;;;5090198;28;20749;-76
2023/12/02 08:30:17;;;;;;;6.68;2.20;;;23.80;99.90;;;;;;5090075;28;20717;-76
2023/12/02 08:32:48;;;;;;;5.53;2.40;;;23.80;99.90;;;;;;5090246;28;20199;-76
2023/12/02 08:35:19;;;;;;;5.82;1.70;;;23.90;99.90;;;;;;5090256;28;20671;-76
2023/12/02 08:37:50;;;;;;;6.60;1.88;;;23.90;99.90;;;;;;5090018;28;20227;-76
2023/12/02 08:40:23;;;;;;;7.43;1.60;;;23.90;99.90;;;;;;5089085;28;20199;-76
2023/12/02 08:42:53;;;;;;;5.13;1.60;;;23.80;99.90;;;;;;5089993;28;20191;-76
2023/12/02 08:45:24;;;;;;;16.25;8.50;;;23.80;99.90;;;;;;5089698;28;20319;-76
2023/12/02 08:47:55;;;;;;;19.65;17.00;;;23.80;99.90;;;;;;5089900;28;20195;-76
2023/12/02 08:50:26;;;;;;;14.23;9.18;;;23.70;99.90;;;;;;5089897;28;20206;-76
2023/12/02 08:52:56;;;;;;;6.65;4.78;;;23.80;99.90;;;;;;5089981;28;20204;-75
2023/12/02 08:55:29;;;;;;;33.35;28.88;;;23.60;99.90;;;;;;5092243;28;20195;-76
2023/12/02 08:58:01;;;;;;;11.90;9.60;;;23.60;99.90;;;;;;5083788;28;20231;-76
2023/12/02 09:00:34;;;;;;;7.05;3.72;;;23.60;99.90;;;;;;5073684;28;20571;-76
2023/12/02 09:03:06;;;;;;;7.28;3.33;;;23.60;99.90;;;;;;5073670;28;20200;-76
2023/12/02 09:05:37;;;;;;;7.65;4.90;;;23.50;99.90;;;;;;5080921;28;20283;-76
2023/12/02 09:08:08;;;;;;;18.63;13.70;;;23.50;99.90;;;;;;5074010;28;20200;-76
2023/12/02 09:10:43;;;;;;;22.13;17.00;;;23.50;99.90;;;;;;5073930;28;20695;-76
2023/12/02 09:13:26;;;;;;;4.30;2.33;;;23.50;99.90;;;;;;5073941;28;20211;-76
2023/12/02 09:15:57;;;;;;;5.20;2.40;;;23.50;99.90;;;;;;5072680;28;20701;-76
2023/12/02 09:18:32;;;;;;;5.38;3.00;;;23.50;99.90;;;;;;5073403;28;20206;-76
2023/12/02 09:21:04;;;;;;;6.00;1.98;;;23.40;99.90;;;;;;5072877;28;20680;-75
2023/12/02 09:23:36;;;;;;;4.68;2.17;;;23.40;99.90;;;;;;5073081;28;20204;-75
2023/12/02 09:26:28;;;;;;;3.28;2.13;;;23.40;99.90;;;;;;5072728;28;20224;-75
2023/12/02 09:28:59;;;;;;;8.07;6.32;;;23.30;99.90;;;;;;5073081;28;20196;-75
2023/12/02 09:31:30;;;;;;;9.93;6.97;;;23.30;99.90;;;;;;5073540;28;20204;-75
2023/12/02 09:34:05;;;;;;;4.47;2.90;;;23.40;99.90;;;;;;5072912;28;20196;-76
2023/12/02 09:36:39;;;;;;;10.85;8.25;;;23.40;99.90;;;;;;5072501;28;20261;-75
2023/12/02 09:39:48;;;;;;;4.18;2.60;;;23.40;99.90;;;;;;5073172;28;20254;-75
2023/12/02 09:42:21;;;;;;;3.55;1.85;;;23.40;99.90;;;;;;5072717;28;20196;-76
2023/12/02 09:44:58;;;;;;;4.68;1.48;;;23.40;99.90;;;;;;5072393;28;20597;-76
2023/12/02 09:47:32;;;;;;;2.30;1.48;;;23.40;99.90;;;;;;5073410;28;20238;-76
2023/12/02 09:50:11;;;;;;;5.38;2.88;;;23.30;99.90;;;;;;5072604;28;20900;-76
2023/12/02 09:53:03;;;;;;;3.38;1.70;;;23.30;99.90;;;;;;5072997;28;20203;-76
2023/12/02 09:55:39;;;;;;;4.05;1.55;;;23.30;99.90;;;;;;5072346;28;20757;-76
2023/12/02 09:58:24;;;;;;;1.50;1.27;;;23.30;99.90;;;;;;5072830;28;20249;-76
2023/12/02 10:01:04;;;;;;;4.40;1.85;;;23.40;99.90;;;;;;5072440;28;20202;-76
2023/12/02 10:03:57;;;;;;;5.55;2.42;;;23.40;99.90;;;;;;5072258;28;20196;-76
2023/12/02 10:06:49;;;;;;;8.68;5.20;;;23.40;99.90;;;;;;5071445;28;20200;-76
2023/12/02 10:09:36;;;;;;;13.20;7.00;;;23.40;99.90;;;;;;5072252;28;20200;-76
2023/12/02 10:12:25;;;;;;;4.97;2.00;;;23.40;99.90;;;;;;5072311;28;20565;-76
2023/12/02 10:15:05;;;;;;;3.50;1.08;;;23.20;99.90;;;;;;5072089;28;20725;-76
2023/12/02 10:17:40;;;;;;;2.25;0.80;;;22.50;99.90;;;;;;5072150;28;20239;-76
2023/12/02 10:20:14;;;;;;;4.15;2.80;;;22.20;99.90;;;;;;5072169;28;20200;-76
2023/12/02 10:22:47;;;;;;;4.28;1.40;;;22.00;99.90;;;;;;5072708;28;20208;-76
2023/12/02 10:25:34;;;;;;;2.92;1.15;;;21.80;99.90;;;;;;5074166;28;20265;-77
2023/12/02 10:28:13;;;;;;;30.40;23.38;;;21.70;99.90;;;;;;5072888;28;20269;-76
2023/12/02 10:30:52;;;;;;;22.92;13.70;;;21.60;99.90;;;;;;5072226;28;20612;-76
2023/12/02 10:33:34;;;;;;;13.88;3.60;;;21.60;99.90;;;;;;5071847;28;20196;-76
2023/12/02 10:36:07;;;;;;;10.20;2.70;;;21.40;99.90;;;;;;5071744;28;20210;-76
2023/12/02 10:38:53;;;;;;;9.55;2.38;;;21.30;99.90;;;;;;5072225;28;20273;-76
2023/12/02 10:41:32;;;;;;;7.93;2.00;;;21.10;99.90;;;;;;5071943;28;20199;-76
2023/12/02 10:44:09;;;;;;;6.57;1.90;;;20.90;99.90;;;;;;5071628;28;20726;-76
2023/12/02 10:46:44;;;;;;;9.48;2.00;;;20.70;99.90;;;;;;5072530;28;20228;-76
2023/12/02 10:49:16;;;;;;;13.80;2.42;;;20.50;99.90;;;;;;5071561;28;20199;-76
2023/12/02 10:51:50;;;;;;;17.60;2.55;;;20.50;99.90;;;;;;5071619;28;20200;-76
2023/12/02 10:54:24;;;;;;;11.57;1.77;;;20.50;99.90;;;;;;5069426;28;20213;-76
2023/12/02 10:57:05;;;;;;;7.20;1.30;;;20.40;99.90;;;;;;5068531;28;20255;-76
2023/12/02 10:59:43;;;;;;;5.18;0.80;;;20.40;99.90;;;;;;5071493;28;20682;-76
2023/12/02 11:02:32;;;;;;;3.38;1.08;;;20.30;99.90;;;;;;5072284;28;20274;-76
2023/12/02 11:05:21;;;;;;;4.60;1.25;;;20.40;99.90;;;;;;5072472;28;20202;-75
2023/12/02 11:07:56;;;;;;;3.60;1.08;;;20.30;99.90;;;;;;5071519;28;20203;-76
2023/12/02 11:10:37;;;;;;;45.65;37.60;;;20.40;99.90;;;;;;5071171;28;20282;-75
2023/12/02 11:13:13;;;;;;;38.95;32.70;;;20.40;99.90;;;;;;5071539;28;20217;-76
2023/12/02 11:15:57;;;;;;;43.65;35.60;;;20.50;99.90;;;;;;5071507;28;20256;-76
2023/12/02 11:18:43;;;;;;;21.30;17.80;;;20.50;99.90;;;;;;5069970;28;20224;-75
2023/12/02 11:21:25;;;;;;;56.83;42.47;;;20.50;99.90;;;;;;5071161;28;20584;-76
2023/12/02 11:24:05;;;;;;;24.92;16.63;;;20.50;99.90;;;;;;5071005;28;20204;-76
2023/12/02 11:26:41;;;;;;;22.70;15.75;;;20.60;99.90;;;;;;5070807;28;20298;-76
2023/12/02 11:29:23;;;;;;;17.25;8.35;;;20.60;99.90;;;;;;5071855;28;20210;-76
2023/12/02 11:32:19;;;;;;;11.82;5.40;;;20.60;99.90;;;;;;5070945;28;20214;-75
2023/12/02 11:35:11;;;;;;;9.70;3.97;;;20.60;99.90;;;;;;5070542;28;20202;-76
2023/12/02 11:37:58;;;;;;;10.93;3.00;;;20.70;99.90;;;;;;5071104;28;20670;-75
2023/12/02 11:40:39;;;;;;;11.25;3.28;;;20.70;99.90;;;;;;5071296;28;20203;-76
2023/12/02 11:43:21;;;;;;;16.13;8.45;;;20.70;99.90;;;;;;5075658;28;20192;-76
2023/12/02 11:45:59;;;;;;;12.80;6.88;;;20.70;99.90;;;;;;5070192;28;20777;-75
2023/12/02 11:48:36;;;;;;;8.52;2.95;;;20.70;99.90;;;;;;5050661;28;20200;-75
2023/12/02 11:51:28;;;;;;;9.52;5.10;;;20.70;99.90;;;;;;5050481;28;20196;-76
2023/12/02 11:54:16;;;;;;;8.02;4.97;;;20.70;99.90;;;;;;5060617;28;20192;-76
2023/12/02 11:56:52;;;;;;;8.07;6.53;;;20.60;99.90;;;;;;5074295;28;20241;-74
2023/12/02 11:59:26;;;;;;;4.95;3.63;;;20.70;99.90;;;;;;5085797;28;20257;-74
2023/12/02 12:02:11;;;;;;;3.03;2.10;;;20.60;99.90;;;;;;5081938;28;20180;-75
2023/12/02 12:05:05;;;;;;;5.25;1.27;;;20.60;99.90;;;;;;5071611;28;20199;-75
2023/12/02 12:07:48;;;;;;;4.18;1.17;;;20.50;99.90;;;;;;5070508;28;20218;-75
2023/12/02 12:10:31;;;;;;;2.70;1.10;;;20.40;99.90;;;;;;5070556;28;20206;-76
2023/12/02 12:13:06;;;;;;;2.28;1.25;;;20.30;99.90;;;;;;5070426;28;20196;-76
2023/12/02 12:15:37;;;;;;;4.03;1.67;;;20.30;99.90;;;;;;5070392;28;20203;-75
2023/12/02 12:18:08;;;;;;;3.80;1.48;;;20.40;99.90;;;;;;5070470;28;20223;-75
2023/12/02 12:20:39;;;;;;;3.53;1.23;;;20.40;99.90;;;;;;5070534;28;20566;-75
2023/12/02 12:23:13;;;;;;;3.00;1.30;;;20.30;99.90;;;;;;5070685;28;20199;-76
2023/12/02 12:25:45;;;;;;;3.95;1.40;;;20.40;99.90;;;;;;5070761;28;20220;-75
2023/12/02 12:28:18;;;;;;;2.22;1.23;;;20.40;99.90;;;;;;5070272;28;20218;-76
2023/12/02 12:30:49;;;;;;;3.38;1.20;;;20.50;99.90;;;;;;5073171;28;20202;-76
2023/12/02 12:33:22;;;;;;;3.25;1.13;;;20.50;99.90;;;;;;5074338;28;20202;-76
2023/12/02 12:35:53;;;;;;;2.92;1.65;;;20.50;99.90;;;;;;5074075;28;20202;-76
2023/12/02 12:38:29;;;;;;;2.53;1.70;;;20.50;99.90;;;;;;5074904;28;20249;-75
2023/12/02 12:41:00;;;;;;;2.50;1.40;;;20.50;99.90;;;;;;5074352;28;20199;-76
2023/12/02 12:43:31;;;;;;;3.45;1.27;;;20.40;99.90;;;;;;5074202;28;20546;-76
2023/12/02 12:46:02;;;;;;;2.88;1.30;;;20.40;99.90;;;;;;5073600;28;20310;-75
2023/12/02 12:48:33;;;;;;;3.15;1.38;;;20.40;99.90;;;;;;5073959;28;20195;-75
2023/12/02 12:51:07;;;;;;;1.83;1.08;;;20.40;99.90;;;;;;5073815;28;20184;-75
2023/12/02 12:53:45;;;;;;;1.75;1.05;;;20.40;99.90;;;;;;5054456;28;20200;-75
2023/12/02 12:56:18;;;;;;;2.38;1.20;;;20.30;99.90;;;;;;5096449;28;20286;-75
2023/12/02 12:59:00;;;;;;;3.20;1.30;;;20.30;99.90;;;;;;5095568;28;20223;-76
2023/12/02 13:01:34;;;;;;;1.88;1.20;;;20.40;99.90;;;;;;5094005;28;20199;-76
2023/12/02 13:04:13;;;;;;;2.00;1.10;;;20.30;99.90;;;;;;5093740;28;20569;-75
2023/12/02 13:06:50;;;;;;;4.50;1.00;;;20.30;99.90;;;;;;5094279;28;20195;-74
2023/12/02 13:09:30;;;;;;;3.63;1.35;;;20.30;99.90;;;;;;5081128;28;20231;-75
2023/12/02 13:12:14;;;;;;;3.53;1.60;;;20.30;99.90;;;;;;5092753;28;20203;-75
2023/12/02 13:14:50;;;;;;;2.85;1.30;;;20.20;99.90;;;;;;5106532;28;20195;-76
2023/12/02 13:17:21;;;;;;;2.22;1.20;;;20.20;99.90;;;;;;5094307;28;20199;-76
2023/12/02 13:19:52;;;;;;;4.65;1.30;;;20.20;99.90;;;;;;5093531;28;20202;-76